sensor_id;sensor_type;location;lat;lon;timestamp;P1;durP1;ratioP1;P2;durP2;ratioP2
12880;SDS011;6508;53.786;9.996;2023-02-28T00:01:44;8.73;;;7.72;;
12880;SDS011;6508;53.786;9.996;2023-02-28T00:04:23;8.52;;;7.72;;
12880;SDS011;6508;53.786;9.996;2023-02-28T00:06:51;8.95;;;8.05;;
12880;SDS011;6508;53.786;9.996;2023-02-28T00:09:19;8.05;;;7.35;;
12880;SDS011;6508;53.786;9.996;2023-02-28T00:12:05;12.63;;;7.70;;
12880;SDS011;6508;53.786;9.996;2023-02-28T00:14:39;8.20;;;7.50;;
12880;SDS011;6508;53.786;9.996;2023-02-28T00:17:06;9.10;;;8.23;;
12880;SDS011;6508;53.786;9.996;2023-02-28T00:19:48;9.45;;;7.43;;
12880;SDS011;6508;53.786;9.996;2023-02-28T00:22:20;10.60;;;7.43;;
12880;SDS011;6508;53.786;9.996;2023-02-28T00:24:48;8.27;;;7.43;;
12880;SDS011;6508;53.786;9.996;2023-02-28T00:27:16;8.02;;;7.22;;
12880;SDS011;6508;53.786;9.996;2023-02-28T00:29:47;8.13;;;7.43;;
12880;SDS011;6508;53.786;9.996;2023-02-28T00:32:16;11.18;;;7.93;;
12880;SDS011;6508;53.786;9.996;2023-02-28T00:34:47;8.57;;;7.80;;
12880;SDS011;6508;53.786;9.996;2023-02-28T00:37:17;7.75;;;7.13;;
12880;SDS011;6508;53.786;9.996;2023-02-28T00:39:45;8.00;;;7.30;;
12880;SDS011;6508;53.786;9.996;2023-02-28T00:42:14;8.00;;;7.28;;
12880;SDS011;6508;53.786;9.996;2023-02-28T00:44:42;8.60;;;7.20;;
12880;SDS011;6508;53.786;9.996;2023-02-28T00:47:12;8.40;;;7.60;;
12880;SDS011;6508;53.786;9.996;2023-02-28T00:49:42;7.80;;;6.63;;
12880;SDS011;6508;53.786;9.996;2023-02-28T00:52:10;7.30;;;6.40;;
12880;SDS011;6508;53.786;9.996;2023-02-28T00:54:38;7.65;;;6.65;;
12880;SDS011;6508;53.786;9.996;2023-02-28T00:57:07;7.15;;;6.55;;
12880;SDS011;6508;53.786;9.996;2023-02-28T00:59:51;8.10;;;6.97;;
12880;SDS011;6508;53.786;9.996;2023-02-28T01:02:22;7.60;;;6.90;;
12880;SDS011;6508;53.786;9.996;2023-02-28T01:04:51;6.72;;;6.20;;
12880;SDS011;6508;53.786;9.996;2023-02-28T01:07:20;6.80;;;6.30;;
12880;SDS011;6508;53.786;9.996;2023-02-28T01:09:48;7.60;;;6.82;;
12880;SDS011;6508;53.786;9.996;2023-02-28T01:12:24;7.05;;;6.45;;
12880;SDS011;6508;53.786;9.996;2023-02-28T01:14:51;9.85;;;6.55;;
12880;SDS011;6508;53.786;9.996;2023-02-28T01:17:30;6.90;;;6.30;;
12880;SDS011;6508;53.786;9.996;2023-02-28T01:20:10;8.73;;;6.57;;
12880;SDS011;6508;53.786;9.996;2023-02-28T01:23:08;8.02;;;7.15;;
12880;SDS011;6508;53.786;9.996;2023-02-28T01:26:54;8.85;;;7.03;;
12880;SDS011;6508;53.786;9.996;2023-02-28T01:29:24;8.10;;;7.30;;
12880;SDS011;6508;53.786;9.996;2023-02-28T01:31:52;8.15;;;7.47;;
12880;SDS011;6508;53.786;9.996;2023-02-28T01:34:22;8.55;;;7.82;;
12880;SDS011;6508;53.786;9.996;2023-02-28T01:36:50;9.15;;;8.18;;
12880;SDS011;6508;53.786;9.996;2023-02-28T01:39:18;9.25;;;8.32;;
12880;SDS011;6508;53.786;9.996;2023-02-28T01:41:48;8.15;;;7.30;;
12880;SDS011;6508;53.786;9.996;2023-02-28T01:47:30;8.43;;;7.72;;
12880;SDS011;6508;53.786;9.996;2023-02-28T01:50:07;8.10;;;7.30;;
12880;SDS011;6508;53.786;9.996;2023-02-28T01:52:38;11.05;;;7.43;;
12880;SDS011;6508;53.786;9.996;2023-02-28T01:55:10;8.75;;;7.78;;
12880;SDS011;6508;53.786;9.996;2023-02-28T01:57:45;9.13;;;8.23;;
12880;SDS011;6508;53.786;9.996;2023-02-28T02:00:25;9.27;;;7.15;;
12880;SDS011;6508;53.786;9.996;2023-02-28T02:02:55;6.68;;;6.10;;
12880;SDS011;6508;53.786;9.996;2023-02-28T02:05:30;8.45;;;7.00;;
12880;SDS011;6508;53.786;9.996;2023-02-28T02:08:01;7.00;;;6.50;;
12880;SDS011;6508;53.786;9.996;2023-02-28T02:10:34;7.10;;;6.40;;
12880;SDS011;6508;53.786;9.996;2023-02-28T02:13:10;8.18;;;7.38;;
12880;SDS011;6508;53.786;9.996;2023-02-28T02:15:57;9.27;;;7.95;;
12880;SDS011;6508;53.786;9.996;2023-02-28T02:18:33;9.70;;;7.72;;
12880;SDS011;6508;53.786;9.996;2023-02-28T02:27:25;7.20;;;6.70;;
12880;SDS011;6508;53.786;9.996;2023-02-28T02:30:08;9.70;;;7.65;;
12880;SDS011;6508;53.786;9.996;2023-02-28T02:32:58;9.23;;;7.17;;
12880;SDS011;6508;53.786;9.996;2023-02-28T02:35:33;8.27;;;7.57;;
12880;SDS011;6508;53.786;9.996;2023-02-28T02:38:08;7.90;;;6.65;;
12880;SDS011;6508;53.786;9.996;2023-02-28T02:40:45;10.00;;;7.13;;
12880;SDS011;6508;53.786;9.996;2023-02-28T02:47:04;6.88;;;6.38;;
12880;SDS011;6508;53.786;9.996;2023-02-28T02:49:42;7.53;;;6.82;;
12880;SDS011;6508;53.786;9.996;2023-02-28T02:52:14;7.90;;;7.10;;
12880;SDS011;6508;53.786;9.996;2023-02-28T02:54:45;9.80;;;7.05;;
12880;SDS011;6508;53.786;9.996;2023-02-28T02:57:15;8.65;;;7.60;;
12880;SDS011;6508;53.786;9.996;2023-02-28T02:59:49;8.40;;;7.55;;
12880;SDS011;6508;53.786;9.996;2023-02-28T03:02:21;7.53;;;6.83;;
12880;SDS011;6508;53.786;9.996;2023-02-28T03:04:50;7.95;;;6.63;;
12880;SDS011;6508;53.786;9.996;2023-02-28T03:07:23;7.38;;;6.78;;
12880;SDS011;6508;53.786;9.996;2023-02-28T03:09:53;8.05;;;6.68;;
12880;SDS011;6508;53.786;9.996;2023-02-28T03:12:27;7.20;;;6.50;;
12880;SDS011;6508;53.786;9.996;2023-02-28T03:15:05;7.20;;;6.50;;
12880;SDS011;6508;53.786;9.996;2023-02-28T03:17:49;7.90;;;7.10;;
12880;SDS011;6508;53.786;9.996;2023-02-28T03:20:27;6.55;;;5.95;;
12880;SDS011;6508;53.786;9.996;2023-02-28T03:23:07;6.43;;;5.90;;
12880;SDS011;6508;53.786;9.996;2023-02-28T03:25:43;8.23;;;6.73;;
12880;SDS011;6508;53.786;9.996;2023-02-28T03:28:22;6.60;;;6.10;;
12880;SDS011;6508;53.786;9.996;2023-02-28T03:30:57;7.23;;;6.47;;
12880;SDS011;6508;53.786;9.996;2023-02-28T03:33:28;8.95;;;6.55;;
12880;SDS011;6508;53.786;9.996;2023-02-28T03:36:01;6.78;;;6.15;;
12880;SDS011;6508;53.786;9.996;2023-02-28T03:38:35;7.50;;;6.83;;
12880;SDS011;6508;53.786;9.996;2023-02-28T03:41:10;7.00;;;6.20;;
12880;SDS011;6508;53.786;9.996;2023-02-28T03:43:46;7.07;;;6.23;;
12880;SDS011;6508;53.786;9.996;2023-02-28T03:46:18;7.47;;;6.77;;
12880;SDS011;6508;53.786;9.996;2023-02-28T03:48:51;6.97;;;6.27;;
12880;SDS011;6508;53.786;9.996;2023-02-28T03:51:24;6.73;;;6.13;;
12880;SDS011;6508;53.786;9.996;2023-02-28T03:53:56;6.60;;;6.00;;
12880;SDS011;6508;53.786;9.996;2023-02-28T03:56:27;6.80;;;6.10;;
12880;SDS011;6508;53.786;9.996;2023-02-28T03:59:02;7.00;;;6.40;;
12880;SDS011;6508;53.786;9.996;2023-02-28T04:01:33;9.73;;;6.67;;
12880;SDS011;6508;53.786;9.996;2023-02-28T04:04:04;6.35;;;5.88;;
12880;SDS011;6508;53.786;9.996;2023-02-28T04:06:32;7.37;;;6.77;;
12880;SDS011;6508;53.786;9.996;2023-02-28T04:09:05;7.43;;;6.73;;
12880;SDS011;6508;53.786;9.996;2023-02-28T04:11:35;7.28;;;6.65;;
12880;SDS011;6508;53.786;9.996;2023-02-28T04:14:06;7.60;;;6.40;;
12880;SDS011;6508;53.786;9.996;2023-02-28T04:16:38;7.67;;;6.90;;
12880;SDS011;6508;53.786;9.996;2023-02-28T04:19:08;7.10;;;6.60;;
12880;SDS011;6508;53.786;9.996;2023-02-28T04:21:37;7.13;;;6.63;;
12880;SDS011;6508;53.786;9.996;2023-02-28T04:24:09;7.53;;;6.83;;
12880;SDS011;6508;53.786;9.996;2023-02-28T04:26:41;7.27;;;6.57;;
12880;SDS011;6508;53.786;9.996;2023-02-28T04:29:12;7.37;;;6.50;;
12880;SDS011;6508;53.786;9.996;2023-02-28T04:31:51;8.40;;;6.47;;
12880;SDS011;6508;53.786;9.996;2023-02-28T04:34:24;6.57;;;6.07;;
12880;SDS011;6508;53.786;9.996;2023-02-28T04:37:09;8.33;;;6.33;;
12880;SDS011;6508;53.786;9.996;2023-02-28T04:39:41;6.90;;;6.30;;
12880;SDS011;6508;53.786;9.996;2023-02-28T04:42:12;7.80;;;6.97;;
12880;SDS011;6508;53.786;9.996;2023-02-28T04:44:40;7.13;;;6.43;;
12880;SDS011;6508;53.786;9.996;2023-02-28T04:47:08;7.70;;;6.37;;
12880;SDS011;6508;53.786;9.996;2023-02-28T04:49:35;6.40;;;5.87;;
12880;SDS011;6508;53.786;9.996;2023-02-28T04:52:03;6.73;;;6.17;;
12880;SDS011;6508;53.786;9.996;2023-02-28T04:54:33;7.27;;;6.23;;
12880;SDS011;6508;53.786;9.996;2023-02-28T04:59:53;8.03;;;6.00;;
12880;SDS011;6508;53.786;9.996;2023-02-28T05:02:21;9.03;;;6.93;;
12880;SDS011;6508;53.786;9.996;2023-02-28T05:04:50;6.77;;;6.13;;
12880;SDS011;6508;53.786;9.996;2023-02-28T05:07:18;6.57;;;5.93;;
12880;SDS011;6508;53.786;9.996;2023-02-28T05:09:46;6.73;;;6.20;;
12880;SDS011;6508;53.786;9.996;2023-02-28T05:12:14;9.03;;;5.97;;
12880;SDS011;6508;53.786;9.996;2023-02-28T05:14:43;6.97;;;6.37;;
12880;SDS011;6508;53.786;9.996;2023-02-28T05:17:11;6.77;;;6.10;;
12880;SDS011;6508;53.786;9.996;2023-02-28T05:19:39;6.93;;;6.30;;
12880;SDS011;6508;53.786;9.996;2023-02-28T05:22:14;7.50;;;5.97;;
12880;SDS011;6508;53.786;9.996;2023-02-28T05:24:45;8.73;;;6.50;;
12880;SDS011;6508;53.786;9.996;2023-02-28T05:27:22;6.80;;;6.10;;
12880;SDS011;6508;53.786;9.996;2023-02-28T05:29:52;7.27;;;6.53;;
12880;SDS011;6508;53.786;9.996;2023-02-28T05:32:22;7.37;;;6.43;;
12880;SDS011;6508;53.786;9.996;2023-02-28T05:34:50;7.90;;;7.10;;
12880;SDS011;6508;53.786;9.996;2023-02-28T05:37:25;6.90;;;6.20;;
12880;SDS011;6508;53.786;9.996;2023-02-28T05:40:10;9.33;;;8.40;;
12880;SDS011;6508;53.786;9.996;2023-02-28T05:42:43;9.07;;;8.17;;
12880;SDS011;6508;53.786;9.996;2023-02-28T05:45:21;8.77;;;7.70;;
12880;SDS011;6508;53.786;9.996;2023-02-28T05:48:08;8.07;;;7.30;;
12880;SDS011;6508;53.786;9.996;2023-02-28T05:50:40;7.57;;;6.87;;
12880;SDS011;6508;53.786;9.996;2023-02-28T05:53:08;7.67;;;6.90;;
12880;SDS011;6508;53.786;9.996;2023-02-28T05:55:37;8.03;;;7.23;;
12880;SDS011;6508;53.786;9.996;2023-02-28T05:58:07;8.03;;;7.23;;
12880;SDS011;6508;53.786;9.996;2023-02-28T06:00:36;8.13;;;6.57;;
12880;SDS011;6508;53.786;9.996;2023-02-28T06:03:08;7.27;;;6.60;;
12880;SDS011;6508;53.786;9.996;2023-02-28T06:05:37;12.90;;;8.93;;
12880;SDS011;6508;53.786;9.996;2023-02-28T06:08:05;8.63;;;7.77;;
12880;SDS011;6508;53.786;9.996;2023-02-28T06:10:34;16.30;;;12.00;;
12880;SDS011;6508;53.786;9.996;2023-02-28T06:13:05;8.53;;;6.70;;
12880;SDS011;6508;53.786;9.996;2023-02-28T06:15:43;8.93;;;6.60;;
12880;SDS011;6508;53.786;9.996;2023-02-28T06:18:11;9.93;;;7.13;;
12880;SDS011;6508;53.786;9.996;2023-02-28T06:20:41;8.63;;;6.17;;
12880;SDS011;6508;53.786;9.996;2023-02-28T06:23:11;9.23;;;7.17;;
12880;SDS011;6508;53.786;9.996;2023-02-28T06:25:44;12.40;;;8.13;;
12880;SDS011;6508;53.786;9.996;2023-02-28T06:28:18;15.40;;;10.13;;
12880;SDS011;6508;53.786;9.996;2023-02-28T06:30:48;13.73;;;9.50;;
12880;SDS011;6508;53.786;9.996;2023-02-28T06:33:33;15.13;;;10.97;;
12880;SDS011;6508;53.786;9.996;2023-02-28T06:36:01;13.57;;;10.10;;
12880;SDS011;6508;53.786;9.996;2023-02-28T06:38:45;13.73;;;9.30;;
12880;SDS011;6508;53.786;9.996;2023-02-28T06:41:21;10.83;;;8.63;;
12880;SDS011;6508;53.786;9.996;2023-02-28T06:43:50;14.00;;;8.43;;
12880;SDS011;6508;53.786;9.996;2023-02-28T06:46:19;13.37;;;8.90;;
12880;SDS011;6508;53.786;9.996;2023-02-28T06:48:48;13.23;;;8.50;;
12880;SDS011;6508;53.786;9.996;2023-02-28T06:51:19;9.97;;;8.63;;
12880;SDS011;6508;53.786;9.996;2023-02-28T06:53:53;9.80;;;8.80;;
12880;SDS011;6508;53.786;9.996;2023-02-28T06:56:24;14.30;;;8.20;;
12880;SDS011;6508;53.786;9.996;2023-02-28T06:59:03;12.03;;;8.00;;
12880;SDS011;6508;53.786;9.996;2023-02-28T07:16:19;8.37;;;7.30;;
12880;SDS011;6508;53.786;9.996;2023-02-28T07:18:47;8.80;;;7.30;;
12880;SDS011;6508;53.786;9.996;2023-02-28T07:21:22;10.40;;;7.40;;
12880;SDS011;6508;53.786;9.996;2023-02-28T07:28:18;8.37;;;7.03;;
12880;SDS011;6508;53.786;9.996;2023-02-28T07:30:46;19.20;;;12.50;;
12880;SDS011;6508;53.786;9.996;2023-02-28T07:33:16;18.27;;;9.23;;
12880;SDS011;6508;53.786;9.996;2023-02-28T07:36:01;13.20;;;7.20;;
12880;SDS011;6508;53.786;9.996;2023-02-28T07:44:39;12.97;;;7.03;;
12880;SDS011;6508;53.786;9.996;2023-02-28T07:47:20;10.50;;;7.13;;
12880;SDS011;6508;53.786;9.996;2023-02-28T07:49:54;10.13;;;7.37;;
12880;SDS011;6508;53.786;9.996;2023-02-28T07:52:25;10.63;;;6.77;;
12880;SDS011;6508;53.786;9.996;2023-02-28T07:54:56;9.27;;;6.37;;
12880;SDS011;6508;53.786;9.996;2023-02-28T07:57:24;9.17;;;6.60;;
12880;SDS011;6508;53.786;9.996;2023-02-28T07:59:52;8.20;;;6.10;;
12880;SDS011;6508;53.786;9.996;2023-02-28T12:17:24;3.20;;;3.00;;
12880;SDS011;6508;53.786;9.996;2023-02-28T12:19:59;3.13;;;3.03;;
12880;SDS011;6508;53.786;9.996;2023-02-28T12:22:33;3.40;;;3.30;;
12880;SDS011;6508;53.786;9.996;2023-02-28T12:25:13;3.78;;;3.67;;
12880;SDS011;6508;53.786;9.996;2023-02-28T12:28:11;3.92;;;3.63;;
12880;SDS011;6508;53.786;9.996;2023-02-28T12:30:41;3.90;;;3.70;;
12880;SDS011;6508;53.786;9.996;2023-02-28T12:33:16;3.65;;;3.47;;
12880;SDS011;6508;53.786;9.996;2023-02-28T12:35:47;4.20;;;4.00;;
12880;SDS011;6508;53.786;9.996;2023-02-28T12:38:17;4.97;;;4.78;;
12880;SDS011;6508;53.786;9.996;2023-02-28T12:40:47;4.25;;;4.05;;
12880;SDS011;6508;53.786;9.996;2023-02-28T12:43:18;4.20;;;4.00;;
12880;SDS011;6508;53.786;9.996;2023-02-28T12:45:48;4.72;;;4.63;;
12880;SDS011;6508;53.786;9.996;2023-02-28T12:48:20;3.30;;;3.20;;
12880;SDS011;6508;53.786;9.996;2023-02-28T12:50:49;3.50;;;3.40;;
12880;SDS011;6508;53.786;9.996;2023-02-28T12:53:21;3.50;;;3.40;;
12880;SDS011;6508;53.786;9.996;2023-02-28T12:55:55;3.53;;;3.42;;
12880;SDS011;6508;53.786;9.996;2023-02-28T12:58:30;3.15;;;3.05;;
12880;SDS011;6508;53.786;9.996;2023-02-28T13:01:06;3.10;;;3.00;;
12880;SDS011;6508;53.786;9.996;2023-02-28T13:03:46;3.35;;;3.25;;
12880;SDS011;6508;53.786;9.996;2023-02-28T13:09:11;3.20;;;3.10;;
12880;SDS011;6508;53.786;9.996;2023-02-28T13:11:42;3.30;;;3.20;;
12880;SDS011;6508;53.786;9.996;2023-02-28T13:16:59;3.35;;;3.13;;
12880;SDS011;6508;53.786;9.996;2023-02-28T13:19:31;3.17;;;3.08;;
12880;SDS011;6508;53.786;9.996;2023-02-28T13:22:00;3.72;;;3.53;;
12880;SDS011;6508;53.786;9.996;2023-02-28T13:24:40;3.60;;;3.45;;
12880;SDS011;6508;53.786;9.996;2023-02-28T13:33:21;4.03;;;3.83;;
12880;SDS011;6508;53.786;9.996;2023-02-28T13:36:06;3.35;;;3.25;;
12880;SDS011;6508;53.786;9.996;2023-02-28T13:38:37;3.00;;;2.80;;
12880;SDS011;6508;53.786;9.996;2023-02-28T13:44:08;2.92;;;2.83;;
12880;SDS011;6508;53.786;9.996;2023-02-28T13:47:13;3.30;;;3.20;;
12880;SDS011;6508;53.786;9.996;2023-02-28T13:49:48;3.55;;;3.35;;
12880;SDS011;6508;53.786;9.996;2023-02-28T13:52:17;3.30;;;3.20;;
12880;SDS011;6508;53.786;9.996;2023-02-28T13:54:52;3.20;;;3.00;;
12880;SDS011;6508;53.786;9.996;2023-02-28T13:57:27;3.00;;;2.80;;
12880;SDS011;6508;53.786;9.996;2023-02-28T14:00:05;3.38;;;3.17;;
12880;SDS011;6508;53.786;9.996;2023-02-28T14:02:51;3.55;;;3.35;;
12880;SDS011;6508;53.786;9.996;2023-02-28T14:05:28;3.35;;;3.05;;
12880;SDS011;6508;53.786;9.996;2023-02-28T14:07:58;4.10;;;3.80;;
12880;SDS011;6508;53.786;9.996;2023-02-28T14:10:27;3.70;;;3.50;;
12880;SDS011;6508;53.786;9.996;2023-02-28T14:12:58;3.88;;;3.67;;
12880;SDS011;6508;53.786;9.996;2023-02-28T14:15:44;3.80;;;3.50;;
12880;SDS011;6508;53.786;9.996;2023-02-28T14:18:22;3.58;;;3.38;;
12880;SDS011;6508;53.786;9.996;2023-02-28T14:20:55;3.67;;;3.47;;
12880;SDS011;6508;53.786;9.996;2023-02-28T14:23:31;4.82;;;4.53;;
12880;SDS011;6508;53.786;9.996;2023-02-28T14:26:06;3.97;;;3.78;;
12880;SDS011;6508;53.786;9.996;2023-02-28T14:28:43;3.92;;;3.72;;
12880;SDS011;6508;53.786;9.996;2023-02-28T14:31:17;3.65;;;3.45;;
12880;SDS011;6508;53.786;9.996;2023-02-28T14:33:57;3.92;;;3.65;;
12880;SDS011;6508;53.786;9.996;2023-02-28T14:36:33;4.40;;;4.20;;
12880;SDS011;6508;53.786;9.996;2023-02-28T14:39:04;4.63;;;4.38;;
12880;SDS011;6508;53.786;9.996;2023-02-28T14:41:35;4.30;;;4.18;;
12880;SDS011;6508;53.786;9.996;2023-02-28T14:44:12;4.53;;;4.32;;
12880;SDS011;6508;53.786;9.996;2023-02-28T14:46:42;4.80;;;4.50;;
12880;SDS011;6508;53.786;9.996;2023-02-28T14:49:13;5.00;;;4.72;;
12880;SDS011;6508;53.786;9.996;2023-02-28T14:52:02;5.28;;;4.97;;
12880;SDS011;6508;53.786;9.996;2023-02-28T14:54:35;5.13;;;4.82;;
12880;SDS011;6508;53.786;9.996;2023-02-28T14:57:03;4.97;;;4.78;;
12880;SDS011;6508;53.786;9.996;2023-02-28T14:59:32;5.22;;;4.82;;
12880;SDS011;6508;53.786;9.996;2023-02-28T15:02:17;5.00;;;4.70;;
12880;SDS011;6508;53.786;9.996;2023-02-28T15:04:54;5.30;;;5.07;;
12880;SDS011;6508;53.786;9.996;2023-02-28T15:07:25;5.10;;;4.90;;
12880;SDS011;6508;53.786;9.996;2023-02-28T15:10:06;5.40;;;5.00;;
12880;SDS011;6508;53.786;9.996;2023-02-28T15:12:38;5.35;;;5.05;;
12880;SDS011;6508;53.786;9.996;2023-02-28T15:15:13;5.05;;;4.72;;
12880;SDS011;6508;53.786;9.996;2023-02-28T15:17:43;5.28;;;4.97;;
12880;SDS011;6508;53.786;9.996;2023-02-28T15:20:13;5.10;;;4.80;;
12880;SDS011;6508;53.786;9.996;2023-02-28T15:22:43;5.10;;;4.80;;
12880;SDS011;6508;53.786;9.996;2023-02-28T15:25:13;5.07;;;4.88;;
12880;SDS011;6508;53.786;9.996;2023-02-28T15:27:44;4.82;;;4.57;;
12880;SDS011;6508;53.786;9.996;2023-02-28T15:30:15;5.10;;;4.80;;
12880;SDS011;6508;53.786;9.996;2023-02-28T15:32:45;5.22;;;4.80;;
12880;SDS011;6508;53.786;9.996;2023-02-28T15:35:30;5.57;;;5.07;;
12880;SDS011;6508;53.786;9.996;2023-02-28T15:38:02;6.40;;;5.95;;
12880;SDS011;6508;53.786;9.996;2023-02-28T15:40:32;5.00;;;4.72;;
12880;SDS011;6508;53.786;9.996;2023-02-28T15:43:04;4.90;;;4.70;;
12880;SDS011;6508;53.786;9.996;2023-02-28T15:45:34;5.78;;;5.43;;
12880;SDS011;6508;53.786;9.996;2023-02-28T15:48:04;5.65;;;4.97;;
12880;SDS011;6508;53.786;9.996;2023-02-28T15:50:40;6.05;;;5.65;;
12880;SDS011;6508;53.786;9.996;2023-02-28T15:53:13;5.85;;;5.22;;
12880;SDS011;6508;53.786;9.996;2023-02-28T15:55:42;5.80;;;5.40;;
12880;SDS011;6508;53.786;9.996;2023-02-28T15:58:11;5.80;;;5.53;;
12880;SDS011;6508;53.786;9.996;2023-02-28T16:00:39;5.90;;;5.60;;
12880;SDS011;6508;53.786;9.996;2023-02-28T16:03:25;5.78;;;5.57;;
12880;SDS011;6508;53.786;9.996;2023-02-28T16:08:53;5.55;;;5.32;;
12880;SDS011;6508;53.786;9.996;2023-02-28T16:11:22;5.45;;;5.15;;
12880;SDS011;6508;53.786;9.996;2023-02-28T16:13:49;5.30;;;5.00;;
12880;SDS011;6508;53.786;9.996;2023-02-28T16:16:19;9.00;;;8.07;;
12880;SDS011;6508;53.786;9.996;2023-02-28T16:18:50;5.95;;;5.65;;
12880;SDS011;6508;53.786;9.996;2023-02-28T16:21:18;4.80;;;4.50;;
12880;SDS011;6508;53.786;9.996;2023-02-28T16:23:46;5.00;;;4.70;;
12880;SDS011;6508;53.786;9.996;2023-02-28T16:26:18;5.50;;;5.20;;
12880;SDS011;6508;53.786;9.996;2023-02-28T16:28:48;5.30;;;4.88;;
12880;SDS011;6508;53.786;9.996;2023-02-28T16:31:16;4.88;;;4.63;;
12880;SDS011;6508;53.786;9.996;2023-02-28T16:33:44;4.78;;;4.38;;
12880;SDS011;6508;53.786;9.996;2023-02-28T16:36:13;5.10;;;4.70;;
12880;SDS011;6508;53.786;9.996;2023-02-28T16:38:43;5.45;;;4.97;;
12880;SDS011;6508;53.786;9.996;2023-02-28T16:41:12;5.03;;;4.75;;
12880;SDS011;6508;53.786;9.996;2023-02-28T16:43:47;4.70;;;4.50;;
12880;SDS011;6508;53.786;9.996;2023-02-28T16:46:16;4.32;;;4.05;;
12880;SDS011;6508;53.786;9.996;2023-02-28T16:48:45;4.80;;;4.45;;
12880;SDS011;6508;53.786;9.996;2023-02-28T16:51:15;4.97;;;4.70;;
12880;SDS011;6508;53.786;9.996;2023-02-28T16:53:43;4.93;;;4.72;;
12880;SDS011;6508;53.786;9.996;2023-02-28T16:56:15;5.93;;;4.40;;
12880;SDS011;6508;53.786;9.996;2023-02-28T16:58:44;4.53;;;4.32;;
12880;SDS011;6508;53.786;9.996;2023-02-28T17:01:15;4.70;;;4.43;;
12880;SDS011;6508;53.786;9.996;2023-02-28T17:03:48;4.93;;;4.60;;
12880;SDS011;6508;53.786;9.996;2023-02-28T17:06:17;4.95;;;4.65;;
12880;SDS011;6508;53.786;9.996;2023-02-28T17:08:47;5.05;;;4.78;;
12880;SDS011;6508;53.786;9.996;2023-02-28T17:11:15;5.05;;;4.80;;
12880;SDS011;6508;53.786;9.996;2023-02-28T17:13:43;5.45;;;5.07;;
12880;SDS011;6508;53.786;9.996;2023-02-28T17:16:15;4.47;;;4.28;;
12880;SDS011;6508;53.786;9.996;2023-02-28T17:18:46;4.97;;;4.53;;
12880;SDS011;6508;53.786;9.996;2023-02-28T17:21:15;5.60;;;5.20;;
12880;SDS011;6508;53.786;9.996;2023-02-28T17:23:43;6.07;;;5.63;;
12880;SDS011;6508;53.786;9.996;2023-02-28T17:26:12;6.53;;;5.93;;
12880;SDS011;6508;53.786;9.996;2023-02-28T17:28:40;7.65;;;7.05;;
12880;SDS011;6508;53.786;9.996;2023-02-28T17:31:08;8.27;;;7.47;;
12880;SDS011;6508;53.786;9.996;2023-02-28T17:33:38;10.18;;;8.95;;
12880;SDS011;6508;53.786;9.996;2023-02-28T17:36:06;11.90;;;10.57;;
12880;SDS011;6508;53.786;9.996;2023-02-28T17:38:36;16.10;;;11.00;;
12880;SDS011;6508;53.786;9.996;2023-02-28T17:41:04;9.48;;;8.88;;
12880;SDS011;6508;53.786;9.996;2023-02-28T17:43:31;8.73;;;8.13;;
12880;SDS011;6508;53.786;9.996;2023-02-28T17:45:59;9.93;;;9.27;;
12880;SDS011;6508;53.786;9.996;2023-02-28T17:48:27;9.52;;;8.73;;
12880;SDS011;6508;53.786;9.996;2023-02-28T17:50:58;7.75;;;7.35;;
12880;SDS011;6508;53.786;9.996;2023-02-28T17:53:26;8.05;;;7.57;;
12880;SDS011;6508;53.786;9.996;2023-02-28T17:55:54;7.65;;;7.35;;
12880;SDS011;6508;53.786;9.996;2023-02-28T17:58:21;8.65;;;7.88;;
12880;SDS011;6508;53.786;9.996;2023-02-28T18:00:49;10.32;;;9.32;;
12880;SDS011;6508;53.786;9.996;2023-02-28T18:03:20;9.50;;;8.70;;
12880;SDS011;6508;53.786;9.996;2023-02-28T18:05:48;10.00;;;9.20;;
12880;SDS011;6508;53.786;9.996;2023-02-28T18:08:17;10.93;;;10.18;;
12880;SDS011;6508;53.786;9.996;2023-02-28T18:10:45;10.25;;;9.35;;
12880;SDS011;6508;53.786;9.996;2023-02-28T18:13:13;8.70;;;8.10;;
12880;SDS011;6508;53.786;9.996;2023-02-28T18:15:40;9.18;;;8.38;;
12880;SDS011;6508;53.786;9.996;2023-02-28T18:18:08;9.53;;;8.90;;
12880;SDS011;6508;53.786;9.996;2023-02-28T18:20:36;10.23;;;9.47;;
12880;SDS011;6508;53.786;9.996;2023-02-28T18:23:04;10.10;;;9.30;;
12880;SDS011;6508;53.786;9.996;2023-02-28T18:25:33;10.67;;;9.87;;
12880;SDS011;6508;53.786;9.996;2023-02-28T18:28:01;10.25;;;9.55;;
12880;SDS011;6508;53.786;9.996;2023-02-28T18:30:31;9.90;;;9.27;;
12880;SDS011;6508;53.786;9.996;2023-02-28T18:33:02;11.02;;;10.18;;
12880;SDS011;6508;53.786;9.996;2023-02-28T18:35:32;12.35;;;11.02;;
12880;SDS011;6508;53.786;9.996;2023-02-28T18:38:07;11.65;;;10.57;;
12880;SDS011;6508;53.786;9.996;2023-02-28T18:40:37;9.87;;;9.17;;
12880;SDS011;6508;53.786;9.996;2023-02-28T18:43:06;9.52;;;8.73;;
12880;SDS011;6508;53.786;9.996;2023-02-28T18:45:36;9.05;;;8.25;;
12880;SDS011;6508;53.786;9.996;2023-02-28T18:48:04;13.10;;;11.90;;
12880;SDS011;6508;53.786;9.996;2023-02-28T18:50:36;11.83;;;10.73;;
12880;SDS011;6508;53.786;9.996;2023-02-28T18:53:05;10.43;;;9.63;;
12880;SDS011;6508;53.786;9.996;2023-02-28T18:55:33;10.93;;;9.95;;
12880;SDS011;6508;53.786;9.996;2023-02-28T18:58:02;10.10;;;9.37;;
12880;SDS011;6508;53.786;9.996;2023-02-28T19:00:30;10.07;;;9.13;;
12880;SDS011;6508;53.786;9.996;2023-02-28T19:02:58;9.13;;;8.43;;
12880;SDS011;6508;53.786;9.996;2023-02-28T19:05:26;9.93;;;9.13;;
12880;SDS011;6508;53.786;9.996;2023-02-28T19:07:58;10.97;;;10.00;;
12880;SDS011;6508;53.786;9.996;2023-02-28T19:10:25;11.90;;;11.07;;
12880;SDS011;6508;53.786;9.996;2023-02-28T19:12:54;11.67;;;10.77;;
12880;SDS011;6508;53.786;9.996;2023-02-28T19:15:23;11.97;;;10.90;;
12880;SDS011;6508;53.786;9.996;2023-02-28T19:17:50;12.60;;;11.43;;
12880;SDS011;6508;53.786;9.996;2023-02-28T19:20:19;12.80;;;11.60;;
12880;SDS011;6508;53.786;9.996;2023-02-28T19:22:46;12.93;;;11.87;;
12880;SDS011;6508;53.786;9.996;2023-02-28T19:25:14;12.07;;;10.87;;
12880;SDS011;6508;53.786;9.996;2023-02-28T19:27:42;12.03;;;9.33;;
12880;SDS011;6508;53.786;9.996;2023-02-28T19:30:10;10.10;;;9.20;;
12880;SDS011;6508;53.786;9.996;2023-02-28T19:32:40;10.37;;;9.20;;
12880;SDS011;6508;53.786;9.996;2023-02-28T19:35:08;10.47;;;9.47;;
12880;SDS011;6508;53.786;9.996;2023-02-28T19:37:36;9.33;;;8.43;;
12880;SDS011;6508;53.786;9.996;2023-02-28T19:40:04;6.43;;;5.93;;
12880;SDS011;6508;53.786;9.996;2023-02-28T19:42:34;6.00;;;5.47;;
12880;SDS011;6508;53.786;9.996;2023-02-28T19:45:02;6.80;;;5.97;;
12880;SDS011;6508;53.786;9.996;2023-02-28T19:47:30;6.87;;;6.10;;
12880;SDS011;6508;53.786;9.996;2023-02-28T19:49:59;7.27;;;6.63;;
12880;SDS011;6508;53.786;9.996;2023-02-28T19:52:28;8.10;;;7.30;;
12880;SDS011;6508;53.786;9.996;2023-02-28T19:54:55;9.87;;;9.03;;
12880;SDS011;6508;53.786;9.996;2023-02-28T19:57:23;10.37;;;9.37;;
12880;SDS011;6508;53.786;9.996;2023-02-28T19:59:50;11.27;;;10.10;;
12880;SDS011;6508;53.786;9.996;2023-02-28T20:02:19;14.03;;;9.97;;
12880;SDS011;6508;53.786;9.996;2023-02-28T20:04:48;10.67;;;9.77;;
12880;SDS011;6508;53.786;9.996;2023-02-28T20:07:18;9.67;;;8.77;;
12880;SDS011;6508;53.786;9.996;2023-02-28T20:09:46;9.83;;;8.57;;
12880;SDS011;6508;53.786;9.996;2023-02-28T20:12:14;10.40;;;9.40;;
12880;SDS011;6508;53.786;9.996;2023-02-28T20:14:50;11.33;;;9.23;;
12880;SDS011;6508;53.786;9.996;2023-02-28T20:17:18;11.23;;;10.03;;
12880;SDS011;6508;53.786;9.996;2023-02-28T20:19:46;12.53;;;10.23;;
12880;SDS011;6508;53.786;9.996;2023-02-28T20:22:15;11.10;;;9.60;;
12880;SDS011;6508;53.786;9.996;2023-02-28T20:24:45;13.10;;;11.23;;
12880;SDS011;6508;53.786;9.996;2023-02-28T20:27:13;13.00;;;11.47;;
12880;SDS011;6508;53.786;9.996;2023-02-28T20:29:41;15.77;;;12.90;;
12880;SDS011;6508;53.786;9.996;2023-02-28T20:32:09;13.87;;;11.80;;
12880;SDS011;6508;53.786;9.996;2023-02-28T20:34:38;16.90;;;12.77;;
12880;SDS011;6508;53.786;9.996;2023-02-28T20:37:06;15.80;;;11.90;;
12880;SDS011;6508;53.786;9.996;2023-02-28T20:39:34;18.93;;;14.10;;
12880;SDS011;6508;53.786;9.996;2023-02-28T20:42:03;16.77;;;13.13;;